createdAt,value
2022-07-26T00:01:32.583Z,5.47
2022-07-26T00:04:05.272Z,2.67
2022-07-26T00:06:34.981Z,3.20
2022-07-26T00:09:05.252Z,3.75
2022-07-26T00:11:36.145Z,4.63
2022-07-26T00:14:08.544Z,3.17
2022-07-26T00:16:39.321Z,2.75
2022-07-26T00:19:11.714Z,3.88
2022-07-26T00:21:42.609Z,3.20
2022-07-26T00:24:12.619Z,3.95
2022-07-26T00:26:42.364Z,3.42
2022-07-26T00:29:12.234Z,3.85
2022-07-26T00:31:42.051Z,3.25
2022-07-26T00:34:14.486Z,2.45
2022-07-26T00:36:44.556Z,1.92
2022-07-26T00:39:14.265Z,3.03
2022-07-26T00:41:44.014Z,3.55
2022-07-26T00:44:14.394Z,3.40
2022-07-26T00:46:45.168Z,2.35
2022-07-26T00:49:17.740Z,3.90
2022-07-26T00:51:47.641Z,2.83
2022-07-26T00:54:20.097Z,4.28
2022-07-26T00:56:54.979Z,4.40
2022-07-26T00:59:25.376Z,3.08
2022-07-26T01:01:56.732Z,2.78
2022-07-26T01:04:29.217Z,3.05
2022-07-26T01:06:59.504Z,3.92
2022-07-26T01:09:29.389Z,3.78
2022-07-26T01:12:01.961Z,2.90
2022-07-26T01:14:31.700Z,2.97
2022-07-26T01:17:01.554Z,3.35
2022-07-26T01:19:34.028Z,3.10
2022-07-26T01:22:09.913Z,2.92
2022-07-26T01:24:42.301Z,2.85
2022-07-26T01:27:12.351Z,4.65
2022-07-26T01:29:42.129Z,4.35
2022-07-26T01:32:12.385Z,3.75
2022-07-26T01:34:42.079Z,3.58
2022-07-26T01:37:14.674Z,3.60
2022-07-26T01:39:45.865Z,3.85
2022-07-26T01:42:15.642Z,3.05
2022-07-26T01:44:45.381Z,4.28
2022-07-26T01:47:15.089Z,3.88
2022-07-26T01:49:44.883Z,4.85
2022-07-26T01:52:17.212Z,3.15
2022-07-26T01:54:46.926Z,4.97
2022-07-26T01:57:16.699Z,7.53
2022-07-26T01:59:46.529Z,7.60
2022-07-26T02:02:16.331Z,7.55
2022-07-26T02:04:58.715Z,6.85
2022-07-26T02:07:32.542Z,4.53
2022-07-26T02:10:03.142Z,4.93
2022-07-26T02:12:33.390Z,4.63
2022-07-26T02:15:03.700Z,8.27
2022-07-26T02:17:33.427Z,5.43
2022-07-26T02:20:03.366Z,3.67
2022-07-26T02:22:35.735Z,4.78
2022-07-26T02:25:05.908Z,4.38
2022-07-26T02:27:35.799Z,4.43
2022-07-26T02:30:05.653Z,5.38
2022-07-26T02:32:35.534Z,8.82
2022-07-26T02:35:05.376Z,6.68
2022-07-26T02:37:43.642Z,8.15
2022-07-26T02:40:19.349Z,3.38
2022-07-26T02:42:49.448Z,5.50
2022-07-26T02:45:19.228Z,2.22
2022-07-26T02:47:50.614Z,3.80
2022-07-26T02:50:21.716Z,6.20
2022-07-26T02:52:55.245Z,2.83
2022-07-26T02:55:27.077Z,3.58
2022-07-26T02:57:57.205Z,3.75
2022-07-26T03:00:29.045Z,2.78
2022-07-26T03:02:59.152Z,4.47
2022-07-26T03:05:29.087Z,4.00
2022-07-26T03:08:01.802Z,5.35
2022-07-26T03:10:31.632Z,3.95
2022-07-26T03:13:01.554Z,3.95
2022-07-26T03:15:31.362Z,2.53
2022-07-26T03:18:01.427Z,2.92
2022-07-26T03:20:31.323Z,5.20
2022-07-26T03:23:03.686Z,4.50
2022-07-26T03:25:33.395Z,3.22
2022-07-26T03:28:08.057Z,2.85
2022-07-26T03:30:38.388Z,5.45
2022-07-26T03:33:08.135Z,4.70
2022-07-26T03:35:37.914Z,4.13
2022-07-26T03:38:10.229Z,3.28
2022-07-26T03:40:40.051Z,5.65
2022-07-26T03:43:09.756Z,4.80
2022-07-26T03:45:40.044Z,4.53
2022-07-26T03:48:10.215Z,5.00
2022-07-26T03:50:43.167Z,3.35
2022-07-26T03:53:15.521Z,4.53
2022-07-26T03:55:57.642Z,3.95
2022-07-26T03:58:27.349Z,7.57
2022-07-26T04:00:57.097Z,4.10
2022-07-26T04:03:26.835Z,4.70
2022-07-26T04:05:57.541Z,2.90
2022-07-26T04:08:30.168Z,3.13
2022-07-26T04:10:59.995Z,3.55
2022-07-26T04:13:29.720Z,2.70
2022-07-26T04:15:59.433Z,3.38
2022-07-26T04:18:29.171Z,5.78
2022-07-26T04:20:58.925Z,3.97
2022-07-26T04:23:31.292Z,3.00
2022-07-26T04:26:01.435Z,2.67
2022-07-26T04:28:31.594Z,1.80
2022-07-26T04:31:02.332Z,3.45
2022-07-26T04:33:33.186Z,4.07
2022-07-26T04:36:03.570Z,3.25
2022-07-26T04:38:35.930Z,2.47
2022-07-26T04:41:05.951Z,3.10
2022-07-26T04:43:35.726Z,3.38
2022-07-26T04:46:05.906Z,4.53
2022-07-26T04:48:35.739Z,4.40
2022-07-26T04:51:05.544Z,3.95
2022-07-26T04:53:37.865Z,2.67
2022-07-26T04:56:08.064Z,3.65
2022-07-26T04:58:37.934Z,3.13
2022-07-26T05:01:10.447Z,3.05
2022-07-26T05:03:40.966Z,3.10
2022-07-26T05:06:10.885Z,5.38
2022-07-26T05:08:43.488Z,3.80
2022-07-26T05:11:13.583Z,5.63
2022-07-26T05:13:43.476Z,5.30
2022-07-26T05:16:13.206Z,3.85
2022-07-26T05:18:49.078Z,3.00
2022-07-26T05:21:19.978Z,2.15
2022-07-26T05:23:52.316Z,3.40
2022-07-26T05:26:22.037Z,2.88
2022-07-26T05:28:51.812Z,2.42
2022-07-26T05:31:21.623Z,4.97
2022-07-26T05:33:51.386Z,1.92
2022-07-26T05:36:21.198Z,2.85
2022-07-26T05:38:53.525Z,5.03
2022-07-26T05:41:23.233Z,4.25
2022-07-26T05:43:52.977Z,4.05
2022-07-26T05:46:22.755Z,6.25
2022-07-26T05:48:52.556Z,4.68
2022-07-26T05:51:22.295Z,2.53
2022-07-26T05:53:54.578Z,6.85
2022-07-26T05:56:24.377Z,5.20
2022-07-26T05:58:54.377Z,5.60
2022-07-26T06:01:24.102Z,2.15
2022-07-26T06:03:54.234Z,2.15
2022-07-26T06:06:23.988Z,5.78
2022-07-26T06:08:56.573Z,2.67
2022-07-26T06:11:26.494Z,1.90
2022-07-26T06:13:56.713Z,1.88
2022-07-26T06:16:26.573Z,4.05
2022-07-26T06:18:56.264Z,5.88
2022-07-26T06:21:26.155Z,3.42
2022-07-26T06:23:58.471Z,2.90
2022-07-26T06:26:28.260Z,4.93
2022-07-26T06:28:57.957Z,3.30
2022-07-26T06:31:27.793Z,3.33
2022-07-26T06:33:57.547Z,2.90
2022-07-26T06:36:30.460Z,3.42
2022-07-26T06:39:03.282Z,3.67
2022-07-26T06:41:33.207Z,2.78
2022-07-26T06:44:02.885Z,6.75
2022-07-26T06:46:32.645Z,2.53
2022-07-26T06:49:02.529Z,4.82
2022-07-26T06:51:32.321Z,3.22
2022-07-26T06:54:06.029Z,5.03
2022-07-26T06:56:36.048Z,3.72
2022-07-26T06:59:09.394Z,3.10
2022-07-26T07:01:51.299Z,8.15
2022-07-26T07:04:29.241Z,5.20
2022-07-26T07:07:05.274Z,4.95
2022-07-26T07:09:39.117Z,5.38
2022-07-26T07:12:10.913Z,7.18
2022-07-26T07:14:41.241Z,3.92
2022-07-26T07:17:15.941Z,5.57
2022-07-26T07:19:48.312Z,3.90
2022-07-26T07:22:18.284Z,6.38
2022-07-26T07:24:50.626Z,5.00
2022-07-26T07:27:20.946Z,4.97
2022-07-26T07:29:50.749Z,2.45
2022-07-26T07:32:20.540Z,3.35
2022-07-26T07:34:50.801Z,2.67
2022-07-26T07:37:20.898Z,3.28
2022-07-26T07:39:53.250Z,6.00
2022-07-26T07:42:23.800Z,2.92
2022-07-26T07:44:53.510Z,4.30
2022-07-26T07:47:23.286Z,4.35
2022-07-26T07:49:53.008Z,5.75
2022-07-26T07:52:22.716Z,6.35
2022-07-26T07:55:11.614Z,4.13
2022-07-26T07:57:44.760Z,6.97
2022-07-26T08:00:19.493Z,4.22
2022-07-26T08:02:57.109Z,6.55
2022-07-26T08:05:26.835Z,6.85
2022-07-26T08:07:56.863Z,6.57
2022-07-26T08:10:29.642Z,8.25
2022-07-26T08:12:59.366Z,9.60
2022-07-26T08:15:29.083Z,6.22
2022-07-26T08:18:00.697Z,5.43
2022-07-26T08:20:31.040Z,9.35
2022-07-26T08:23:00.841Z,6.35
2022-07-26T08:25:33.298Z,9.32
2022-07-26T08:28:03.974Z,7.82
2022-07-26T08:30:33.973Z,6.13
2022-07-26T08:33:04.224Z,5.90
2022-07-26T08:35:34.068Z,9.07
2022-07-26T08:38:03.804Z,6.03
2022-07-26T08:40:36.866Z,8.40
2022-07-26T08:43:07.028Z,8.20
2022-07-26T08:45:37.003Z,6.50
2022-07-26T08:48:17.340Z,7.57
2022-07-26T08:50:48.113Z,8.75
2022-07-26T08:53:18.372Z,5.78
2022-07-26T08:56:06.558Z,7.75
2022-07-26T08:58:40.963Z,7.35
2022-07-26T09:01:13.211Z,9.18
2022-07-26T09:03:44.155Z,6.60
2022-07-26T09:06:16.191Z,10.15
2022-07-26T09:08:47.209Z,5.38
2022-07-26T09:11:34.596Z,5.72
2022-07-26T09:14:06.019Z,7.93
2022-07-26T09:16:40.151Z,5.53
2022-07-26T09:19:22.769Z,7.03
2022-07-26T09:21:55.655Z,5.15
2022-07-26T09:24:36.730Z,6.90
2022-07-26T09:27:11.818Z,8.15
2022-07-26T09:29:49.830Z,7.32
2022-07-26T09:32:21.570Z,4.85
2022-07-26T09:34:57.748Z,7.30
2022-07-26T09:37:38.333Z,3.75
2022-07-26T09:40:10.378Z,3.10
2022-07-26T09:42:57.115Z,5.22
2022-07-26T09:45:27.892Z,6.90
2022-07-26T09:47:57.909Z,5.45
2022-07-26T09:50:31.894Z,5.60
2022-07-26T09:53:09.681Z,5.65
2022-07-26T09:55:56.521Z,7.85
2022-07-26T09:58:30.846Z,7.85
2022-07-26T10:01:02.446Z,7.18
2022-07-26T10:03:33.479Z,4.90
2022-07-26T10:06:04.122Z,5.63
2022-07-26T10:08:34.416Z,3.80
2022-07-26T10:11:08.162Z,5.55
2022-07-26T10:13:40.921Z,5.47
2022-07-26T10:16:34.741Z,3.35
2022-07-26T10:19:05.088Z,4.78
2022-07-26T10:21:35.393Z,4.88
2022-07-26T10:24:08.688Z,7.72
2022-07-26T10:26:45.733Z,4.18
2022-07-26T10:29:29.573Z,5.13
2022-07-26T10:32:23.153Z,3.90
2022-07-26T10:34:53.040Z,4.65
2022-07-26T10:37:30.592Z,3.83
2022-07-26T10:40:22.903Z,2.53
2022-07-26T10:42:52.613Z,4.65
2022-07-26T10:45:26.151Z,4.70
2022-07-26T10:48:15.137Z,1.98
2022-07-26T10:50:47.066Z,2.17
2022-07-26T10:53:21.491Z,3.97
2022-07-26T10:55:54.010Z,4.15
2022-07-26T10:58:24.634Z,2.65
2022-07-26T11:01:02.278Z,3.53
2022-07-26T11:03:41.488Z,3.60
2022-07-26T11:06:15.877Z,2.03
2022-07-26T11:08:48.338Z,3.42
2022-07-26T11:11:31.509Z,2.85
2022-07-26T11:14:09.488Z,3.55
2022-07-26T11:16:43.916Z,3.75
2022-07-26T11:19:19.185Z,1.92
2022-07-26T11:21:50.065Z,3.25
2022-07-26T11:24:19.871Z,3.30
2022-07-26T11:26:50.518Z,4.07
2022-07-26T11:29:38.628Z,4.68
2022-07-26T11:32:20.296Z,3.53
2022-07-26T11:34:50.611Z,4.75
2022-07-26T11:37:20.328Z,4.32
2022-07-26T11:39:50.120Z,3.40
2022-07-26T11:42:22.551Z,4.88
2022-07-26T11:44:54.155Z,4.72
2022-07-26T11:47:27.154Z,3.83
2022-07-26T11:52:46.986Z,7.40
2022-07-26T11:55:16.744Z,5.32
2022-07-26T11:57:46.466Z,5.53
2022-07-26T12:00:18.333Z,4.70
2022-07-26T12:02:55.759Z,4.82
2022-07-26T12:05:26.854Z,5.97
2022-07-26T12:08:03.104Z,2.83
2022-07-26T12:10:33.547Z,5.50
2022-07-26T12:13:11.070Z,5.47
2022-07-26T12:15:48.238Z,3.40
2022-07-26T12:18:31.372Z,4.35
2022-07-26T12:21:05.480Z,2.33
2022-07-26T12:23:48.394Z,4.25
2022-07-26T12:26:23.289Z,4.90
2022-07-26T12:28:53.218Z,4.05
2022-07-26T12:31:30.386Z,3.42
2022-07-26T12:34:03.621Z,3.45
2022-07-26T12:36:36.902Z,4.00
2022-07-26T12:39:07.470Z,3.40
2022-07-26T12:41:38.614Z,6.43
2022-07-26T12:44:11.967Z,5.00
2022-07-26T12:46:45.029Z,3.50
2022-07-26T12:49:17.833Z,2.85
2022-07-26T12:51:47.629Z,4.82
2022-07-26T12:54:17.449Z,4.70
2022-07-26T12:56:47.186Z,4.07
2022-07-26T12:59:18.704Z,3.75
2022-07-26T13:01:48.572Z,4.88
2022-07-26T13:04:21.033Z,4.45
2022-07-26T13:06:50.828Z,5.07
2022-07-26T13:09:20.551Z,2.33
2022-07-26T13:11:50.334Z,3.67
2022-07-26T13:14:20.093Z,2.78
2022-07-26T13:16:49.860Z,3.80
2022-07-26T13:19:22.552Z,4.15
2022-07-26T13:21:53.154Z,4.38
2022-07-26T13:24:23.057Z,3.55
2022-07-26T13:26:53.370Z,3.25
2022-07-26T13:29:23.301Z,2.55
2022-07-26T13:31:53.944Z,2.85
2022-07-26T13:34:29.282Z,2.70
2022-07-26T13:37:08.310Z,2.35
2022-07-26T13:39:38.402Z,2.75
2022-07-26T13:42:08.725Z,1.33
2022-07-26T13:44:38.419Z,3.05
2022-07-26T13:47:08.343Z,1.73
2022-07-26T13:49:40.706Z,3.08
2022-07-26T13:52:15.552Z,2.33
2022-07-26T13:54:46.469Z,5.65
2022-07-26T13:57:16.345Z,2.67
2022-07-26T13:59:46.049Z,3.22
2022-07-26T14:02:16.007Z,2.42
2022-07-26T14:04:48.676Z,3.50
2022-07-26T14:07:18.414Z,2.13
2022-07-26T14:09:48.151Z,2.20
2022-07-26T14:12:17.985Z,2.17
2022-07-26T14:14:47.705Z,2.10
2022-07-26T14:17:17.468Z,2.42
2022-07-26T14:19:51.007Z,1.85
2022-07-26T14:22:20.758Z,3.97
2022-07-26T14:24:50.478Z,2.53
2022-07-26T14:27:20.337Z,4.18
2022-07-26T14:29:50.189Z,3.58
2022-07-26T14:32:22.172Z,2.03
2022-07-26T14:34:54.904Z,3.78
2022-07-26T14:37:42.220Z,2.47
2022-07-26T14:40:16.469Z,2.95
2022-07-26T14:42:58.556Z,2.25
2022-07-26T14:45:28.932Z,3.17
2022-07-26T14:47:59.556Z,2.97
2022-07-26T14:50:46.958Z,4.43
2022-07-26T14:53:22.417Z,3.33
2022-07-26T14:55:52.155Z,3.05
2022-07-26T14:58:22.338Z,1.30
2022-07-26T15:00:53.836Z,3.67
2022-07-26T15:03:23.693Z,2.67
2022-07-26T15:05:56.137Z,3.22
2022-07-26T15:08:26.011Z,2.95
2022-07-26T15:11:38.033Z,4.57
2022-07-26T15:14:08.192Z,3.10
2022-07-26T15:16:38.358Z,2.80
2022-07-26T15:19:08.395Z,1.45
2022-07-26T15:21:40.751Z,1.65
2022-07-26T15:24:14.327Z,1.65
2022-07-26T15:26:45.365Z,2.80
2022-07-26T15:29:16.826Z,2.78
2022-07-26T15:31:46.713Z,2.67
2022-07-26T15:34:17.724Z,4.82
2022-07-26T15:36:50.166Z,3.20
2022-07-26T15:39:19.973Z,2.97
2022-07-26T15:41:50.845Z,3.65
2022-07-26T15:44:24.276Z,2.10
2022-07-26T15:46:55.844Z,2.33
2022-07-26T15:49:26.258Z,2.72
2022-07-26T15:51:58.658Z,1.52
2022-07-26T15:54:28.760Z,1.45
2022-07-26T15:56:58.513Z,1.85
2022-07-26T16:03:01.400Z,1.58
2022-07-26T16:05:31.222Z,2.28
2022-07-26T16:08:03.513Z,1.52
2022-07-26T16:10:33.306Z,1.25
2022-07-26T16:13:03.118Z,3.33
2022-07-26T16:15:32.881Z,1.98
2022-07-26T16:18:06.350Z,1.40
2022-07-26T16:20:37.007Z,1.98
2022-07-26T16:23:09.413Z,1.55
2022-07-26T16:25:39.197Z,2.15
2022-07-26T16:28:10.100Z,1.08
2022-07-26T16:30:39.953Z,1.00
2022-07-26T16:33:09.845Z,2.13
2022-07-26T16:35:39.672Z,1.25
2022-07-26T16:38:12.069Z,1.38
2022-07-26T16:40:41.906Z,1.20
2022-07-26T16:43:12.015Z,1.85
2022-07-26T16:45:42.173Z,5.07
2022-07-26T16:48:12.863Z,2.75
2022-07-26T16:50:43.455Z,2.55
2022-07-26T16:53:15.845Z,1.23
2022-07-26T16:55:47.232Z,2.13
2022-07-26T16:58:17.024Z,2.28
2022-07-26T17:00:47.123Z,2.15
2022-07-26T17:03:17.616Z,2.00
2022-07-26T17:05:47.504Z,3.33
2022-07-26T17:08:21.041Z,1.83
2022-07-26T17:10:50.830Z,2.67
2022-07-26T17:13:20.628Z,1.70
2022-07-26T17:15:50.610Z,2.72
2022-07-26T17:18:20.586Z,2.85
2022-07-26T17:20:50.371Z,3.15
2022-07-26T17:23:22.764Z,3.55
2022-07-26T17:25:52.543Z,3.45
2022-07-26T17:28:22.338Z,2.15
2022-07-26T17:30:52.126Z,3.40
2022-07-26T17:33:22.045Z,2.63
2022-07-26T17:35:51.845Z,2.53
2022-07-26T17:38:24.275Z,3.70
2022-07-26T17:40:56.664Z,2.60
2022-07-26T17:43:36.407Z,2.05
2022-07-26T17:46:07.020Z,2.38
2022-07-26T17:48:36.950Z,2.30
2022-07-26T17:51:06.997Z,2.53
2022-07-26T17:53:39.410Z,2.15
2022-07-26T17:56:09.262Z,2.67
2022-07-26T17:58:39.027Z,4.13
2022-07-26T18:01:09.401Z,1.50
2022-07-26T18:03:39.195Z,1.23
2022-07-26T18:06:09.413Z,3.15
2022-07-26T18:08:41.884Z,2.78
2022-07-26T18:11:12.769Z,1.35
2022-07-26T18:13:42.544Z,1.85
2022-07-26T18:16:13.077Z,1.20
2022-07-26T18:18:43.544Z,2.60
2022-07-26T18:21:13.597Z,1.98
2022-07-26T18:24:06.671Z,3.13
2022-07-26T18:26:35.844Z,1.75
2022-07-26T18:29:05.833Z,3.55
2022-07-26T18:31:35.957Z,1.10
2022-07-26T18:34:06.785Z,1.67
2022-07-26T18:36:36.860Z,4.35
2022-07-26T18:39:09.626Z,2.53
2022-07-26T18:41:39.668Z,1.85
2022-07-26T18:44:09.503Z,2.08
2022-07-26T18:46:42.552Z,3.10
2022-07-26T18:52:31.904Z,1.75
2022-07-26T18:55:08.100Z,3.53
2022-07-26T18:57:38.267Z,3.30
2022-07-26T19:00:09.551Z,4.30
2022-07-26T19:02:39.268Z,3.92
2022-07-26T19:05:09.725Z,2.50
2022-07-26T19:07:40.273Z,2.20
2022-07-26T19:10:13.622Z,1.38
2022-07-26T19:12:43.936Z,1.83
2022-07-26T19:15:14.677Z,2.05
2022-07-26T19:17:45.034Z,3.30
2022-07-26T19:20:15.592Z,2.13
2022-07-26T19:22:47.416Z,1.92
2022-07-26T19:25:20.769Z,2.67
2022-07-26T19:27:50.464Z,2.35
2022-07-26T19:30:20.295Z,2.85
2022-07-26T19:32:50.037Z,1.42
2022-07-26T19:35:22.641Z,2.35
2022-07-26T19:37:52.418Z,1.00
2022-07-26T19:40:24.827Z,2.03
2022-07-26T19:42:54.607Z,4.60
2022-07-26T19:45:24.617Z,2.83
2022-07-26T19:47:54.371Z,1.48
2022-07-26T19:50:24.473Z,3.35
2022-07-26T19:52:54.194Z,1.58
2022-07-26T19:55:26.569Z,2.47
2022-07-26T19:57:56.305Z,3.50
2022-07-26T20:00:26.980Z,3.10
2022-07-26T20:02:56.695Z,2.55
2022-07-26T20:05:26.625Z,3.13
2022-07-26T20:07:56.400Z,1.42
2022-07-26T20:10:31.974Z,1.90
2022-07-26T20:13:02.293Z,2.22
2022-07-26T20:15:32.071Z,2.10
2022-07-26T20:18:01.814Z,3.72
2022-07-26T20:20:31.690Z,3.72
2022-07-26T20:23:02.343Z,2.80
2022-07-26T20:25:34.738Z,1.63
2022-07-26T20:28:04.459Z,3.80
2022-07-26T20:30:34.396Z,3.13
2022-07-26T20:33:04.131Z,1.50
2022-07-26T20:35:34.234Z,2.65
2022-07-26T20:38:04.036Z,2.65
2022-07-26T20:40:36.434Z,2.33
2022-07-26T20:43:07.704Z,3.20
2022-07-26T20:45:37.472Z,1.40
2022-07-26T20:48:08.037Z,2.35
2022-07-26T20:50:38.489Z,1.60
2022-07-26T20:53:08.207Z,1.52
2022-07-26T20:55:40.565Z,1.95
2022-07-26T20:58:10.267Z,1.98
2022-07-26T21:00:40.002Z,2.55
2022-07-26T21:03:10.015Z,2.55
2022-07-26T21:05:39.727Z,2.10
2022-07-26T21:08:09.509Z,1.15
2022-07-26T21:10:42.101Z,2.38
2022-07-26T21:13:12.402Z,3.67
2022-07-26T21:15:42.536Z,1.77
2022-07-26T21:18:12.434Z,2.00
2022-07-26T21:20:43.088Z,2.10
2022-07-26T21:23:17.762Z,3.55
2022-07-26T21:25:57.932Z,3.25
2022-07-26T21:28:29.295Z,5.07
2022-07-26T21:30:59.029Z,1.67
2022-07-26T21:33:28.724Z,2.03
2022-07-26T21:35:58.441Z,2.58
2022-07-26T21:38:29.909Z,1.77
2022-07-26T21:41:02.274Z,5.78
2022-07-26T21:43:32.237Z,1.55
2022-07-26T21:46:02.083Z,2.08
2022-07-26T21:48:32.449Z,3.53
2022-07-26T21:51:02.241Z,2.00
2022-07-26T21:53:32.004Z,1.63
2022-07-26T21:56:05.749Z,3.45
2022-07-26T21:58:36.849Z,4.43
2022-07-26T22:01:07.572Z,3.22
2022-07-26T22:03:39.216Z,3.00
2022-07-26T22:06:10.341Z,4.20
2022-07-26T22:08:40.606Z,2.30
2022-07-26T22:11:20.018Z,4.55
2022-07-26T22:13:49.833Z,3.28
2022-07-26T22:16:19.648Z,6.30
2022-07-26T22:18:49.458Z,2.47
2022-07-26T22:21:19.198Z,4.00
2022-07-26T22:23:49.466Z,3.22
2022-07-26T22:26:26.281Z,4.18
2022-07-26T22:28:56.060Z,4.93
2022-07-26T22:31:26.054Z,4.10
2022-07-26T22:33:55.869Z,1.38
2022-07-26T22:36:25.616Z,1.42
2022-07-26T22:38:55.468Z,2.22
2022-07-26T22:41:31.695Z,3.28
2022-07-26T22:44:02.396Z,2.95
2022-07-26T22:46:32.138Z,2.28
2022-07-26T22:49:01.932Z,1.33
2022-07-26T22:51:31.824Z,0.80
2022-07-26T22:54:01.580Z,2.05
2022-07-26T22:56:34.054Z,1.17
2022-07-26T22:59:03.754Z,1.40
2022-07-26T23:01:33.551Z,1.02
2022-07-26T23:04:03.468Z,1.52
2022-07-26T23:06:35.973Z,1.08
2022-07-26T23:09:05.747Z,1.48
2022-07-26T23:11:38.083Z,3.88
2022-07-26T23:14:07.823Z,2.33
2022-07-26T23:16:37.625Z,2.08
2022-07-26T23:19:07.831Z,2.15
2022-07-26T23:21:37.691Z,3.03
2022-07-26T23:24:07.791Z,1.83
2022-07-26T23:26:40.198Z,3.25
2022-07-26T23:29:10.535Z,2.10
2022-07-26T23:31:42.310Z,4.07
2022-07-26T23:34:12.135Z,2.83
2022-07-26T23:36:41.875Z,2.72
2022-07-26T23:39:11.930Z,4.20
2022-07-26T23:41:44.484Z,1.77
2022-07-26T23:44:14.219Z,3.85
2022-07-26T23:46:44.048Z,3.08
2022-07-26T23:49:14.401Z,2.25
2022-07-26T23:51:44.393Z,2.25
2022-07-26T23:54:14.119Z,4.78
2022-07-26T23:56:47.642Z,2.85
2022-07-26T23:59:17.518Z,3.10
